Time;durP1;ratioP1;P1;durP2;ratioP2;P2;SDS_P1;SDS_P2;PMS_P1;PMS_P2;Temp;Humidity;BMP_temperature;BMP_pressure;BME280_temperature;BME280_humidity;BME280_pressure;Samples;Min_cycle;Max_cycle;Signal;HPM_P1;HPM_P2
2022/05/24 00:00:31;;;;;;;5.90;2.17;;;11.00;99.90;;;;;;4179369;28;20063;-63
2022/05/24 00:02:32;;;;;;;2.23;1.60;;;11.00;99.90;;;;;;4191210;28;20036;-64
2022/05/24 00:04:33;;;;;;;3.10;1.50;;;11.00;99.90;;;;;;4189972;28;20021;-63
2022/05/24 00:06:34;;;;;;;4.47;1.67;;;10.90;99.90;;;;;;4190337;28;20086;-64
2022/05/24 00:08:35;;;;;;;2.37;1.47;;;10.90;99.90;;;;;;4189623;28;20040;-62
2022/05/24 00:10:37;;;;;;;3.23;2.00;;;10.90;99.90;;;;;;4190652;28;20037;-62
2022/05/24 00:12:39;;;;;;;3.20;1.40;;;10.90;99.90;;;;;;4189506;28;20045;-62
2022/05/24 00:17:00;;;;;;;1.90;1.47;;;10.90;99.90;;;;;;4172376;28;20118;-63
2022/05/24 00:19:01;;;;;;;12.07;1.53;;;10.90;99.90;;;;;;4174157;28;20033;-63
2022/05/24 00:21:05;;;;;;;5.70;1.70;;;10.90;99.90;;;;;;4172996;28;20087;-63
2022/05/24 00:23:06;;;;;;;2.67;1.90;;;10.80;99.90;;;;;;4173718;28;20531;-63
2022/05/24 00:25:08;;;;;;;1.67;1.50;;;10.80;99.90;;;;;;4172519;28;20098;-66
2022/05/24 00:27:09;;;;;;;4.80;1.43;;;10.80;99.90;;;;;;4174229;28;20444;-62
2022/05/24 00:29:10;;;;;;;3.43;1.40;;;10.80;99.90;;;;;;4172542;28;20029;-63
2022/05/24 00:31:12;;;;;;;2.67;1.30;;;10.70;99.90;;;;;;4173558;28;20115;-63
2022/05/24 00:33:13;;;;;;;3.80;1.47;;;10.70;99.90;;;;;;4175293;28;20037;-63
2022/05/24 00:35:15;;;;;;;3.63;1.33;;;10.70;99.90;;;;;;4189576;28;20036;-63
2022/05/24 00:37:19;;;;;;;3.77;1.77;;;10.60;99.90;;;;;;4190030;28;20024;-62
2022/05/24 00:39:20;;;;;;;6.27;1.77;;;10.60;99.90;;;;;;4187601;28;20094;-62
2022/05/24 00:41:40;;;;;;;2.00;1.47;;;10.50;99.90;;;;;;4190082;28;20029;-63
2022/05/24 00:43:50;;;;;;;3.87;1.97;;;10.50;99.90;;;;;;4189291;28;20402;-64
2022/05/24 00:45:54;;;;;;;3.55;1.85;;;10.40;99.90;;;;;;4189673;28;20369;-62
2022/05/24 00:48:08;;;;;;;3.17;1.80;;;10.30;99.90;;;;;;4188167;28;20106;-63
2022/05/24 00:50:15;;;;;;;3.97;1.90;;;10.30;99.90;;;;;;4190181;28;20500;-62
2022/05/24 00:52:18;;;;;;;3.53;1.80;;;10.20;99.90;;;;;;4188335;28;20454;-63
2022/05/24 00:54:19;;;;;;;1.97;1.77;;;10.30;99.90;;;;;;4189677;28;20048;-67
2022/05/24 00:56:40;;;;;;;2.93;1.80;;;10.20;99.90;;;;;;4188874;28;20090;-63
2022/05/24 00:59:03;;;;;;;2.27;1.50;;;10.20;99.90;;;;;;4189669;28;20048;-65
2022/05/24 01:01:43;;;;;;;5.30;1.90;;;10.10;99.90;;;;;;4178523;28;20029;-62
2022/05/24 01:03:44;;;;;;;3.27;1.67;;;10.00;99.90;;;;;;4167831;28;20125;-62
2022/05/24 01:05:45;;;;;;;1.87;1.67;;;10.00;99.90;;;;;;4173268;28;20041;-63
2022/05/24 01:07:46;;;;;;;3.90;1.83;;;9.90;99.90;;;;;;4171883;28;20037;-62
2022/05/24 01:09:55;;;;;;;5.27;2.60;;;9.90;99.90;;;;;;4172755;28;20071;-62
2022/05/24 01:12:02;;;;;;;5.10;2.10;;;9.80;99.90;;;;;;4172589;28;20421;-63
2022/05/24 01:14:05;;;;;;;5.53;1.83;;;9.80;99.90;;;;;;4172288;28;20045;-62
2022/05/24 01:16:06;;;;;;;3.40;1.53;;;9.80;99.90;;;;;;4173163;28;20167;-62
2022/05/24 01:18:08;;;;;;;4.17;2.10;;;9.70;99.90;;;;;;4172539;28;20025;-62
2022/05/24 01:20:10;;;;;;;4.27;1.93;;;9.70;99.90;;;;;;4173264;28;20490;-62
2022/05/24 01:22:21;;;;;;;4.40;2.10;;;9.60;99.90;;;;;;4172049;28;20055;-63
2022/05/24 01:24:33;;;;;;;5.10;1.88;;;9.60;99.90;;;;;;4172956;28;20033;-63
2022/05/24 01:26:54;;;;;;;3.97;1.70;;;9.60;99.90;;;;;;4171780;28;20107;-62
2022/05/24 01:29:01;;;;;;;3.67;2.00;;;9.50;99.90;;;;;;4175306;28;20550;-62
2022/05/24 01:31:05;;;;;;;3.30;2.47;;;9.50;99.90;;;;;;4173677;28;20021;-63
2022/05/24 01:37:46;;;;;;;5.07;1.67;;;9.60;99.90;;;;;;4178354;28;20041;-62
2022/05/24 01:39:51;;;;;;;6.20;2.63;;;9.60;99.90;;;;;;4172685;28;20036;-62
2022/05/24 01:41:52;;;;;;;2.80;1.80;;;9.60;99.90;;;;;;4172530;28;20029;-62
2022/05/24 01:43:55;;;;;;;3.00;1.93;;;9.50;99.90;;;;;;4172017;28;20017;-62
2022/05/24 01:46:03;;;;;;;4.30;1.70;;;9.50;99.90;;;;;;4172915;28;20822;-62
2022/05/24 01:48:10;;;;;;;6.90;2.07;;;9.50;99.90;;;;;;4171599;28;20024;-62
2022/05/24 01:50:18;;;;;;;3.97;1.87;;;9.40;99.90;;;;;;4172428;28;20432;-62
2022/05/24 01:52:51;;;;;;;3.13;1.77;;;9.30;99.90;;;;;;4171701;28;20094;-62
2022/05/24 01:55:00;;;;;;;4.00;2.00;;;9.20;99.90;;;;;;4183474;28;20060;-62
2022/05/24 01:57:14;;;;;;;4.83;2.00;;;9.20;99.90;;;;;;4188417;28;20040;-64
2022/05/24 01:59:18;;;;;;;4.27;2.03;;;9.20;99.90;;;;;;4189211;28;20078;-61
2022/05/24 02:01:39;;;;;;;3.87;1.70;;;9.20;99.90;;;;;;4188252;28;20037;-63
2022/05/24 02:03:40;;;;;;;2.77;1.67;;;9.20;99.90;;;;;;4189244;28;20021;-63
2022/05/24 02:05:42;;;;;;;5.83;1.77;;;9.20;99.90;;;;;;4188451;28;20032;-62
2022/05/24 02:07:43;;;;;;;1.80;1.70;;;9.20;99.90;;;;;;4189187;28;20033;-62
2022/05/24 02:09:47;;;;;;;3.60;1.70;;;9.20;99.90;;;;;;4174112;28;20033;-63
2022/05/24 02:11:48;;;;;;;2.93;1.57;;;9.20;99.90;;;;;;4172568;28;20099;-62
2022/05/24 02:13:56;;;;;;;2.47;1.90;;;9.20;99.90;;;;;;4171342;28;20037;-62
2022/05/24 02:16:02;;;;;;;5.10;2.13;;;9.30;99.90;;;;;;4172933;28;20075;-64
2022/05/24 02:18:14;;;;;;;1.97;1.77;;;9.20;99.90;;;;;;4171789;28;20043;-64
2022/05/24 02:20:22;;;;;;;5.83;1.70;;;9.20;99.90;;;;;;4171078;28;20459;-63
2022/05/24 02:22:26;;;;;;;2.10;1.90;;;9.10;99.90;;;;;;4171183;28;20075;-62
2022/05/24 02:24:27;;;;;;;3.60;1.63;;;9.10;99.90;;;;;;4186667;28;20033;-62
2022/05/24 02:26:30;;;;;;;9.47;2.50;;;9.10;99.90;;;;;;4187998;28;20033;-62
2022/05/24 02:28:31;;;;;;;5.80;2.50;;;9.00;99.90;;;;;;4189240;28;20423;-63
2022/05/24 02:30:32;;;;;;;4.53;2.37;;;8.90;99.90;;;;;;4185722;28;20029;-63
2022/05/24 02:32:33;;;;;;;6.60;2.10;;;8.80;99.90;;;;;;4188816;28;20033;-63
2022/05/24 02:34:35;;;;;;;5.57;2.20;;;8.70;99.90;;;;;;4188763;28;20036;-62
2022/05/24 02:36:36;;;;;;;3.97;2.20;;;8.60;99.90;;;;;;4188872;28;20032;-64
2022/05/24 02:38:37;;;;;;;2.77;1.90;;;8.60;99.90;;;;;;4187947;28;20041;-62
2022/05/24 02:42:58;;;;;;;7.78;2.80;;;8.50;99.90;;;;;;4158530;28;20033;-62
2022/05/24 02:45:00;;;;;;;6.73;2.47;;;8.40;99.90;;;;;;4158295;28;20095;-62
2022/05/24 02:47:01;;;;;;;5.67;1.90;;;8.30;99.90;;;;;;4158586;28;20119;-61
2022/05/24 02:49:02;;;;;;;3.53;2.40;;;8.30;99.90;;;;;;4159002;28;20100;-62
2022/05/24 02:51:09;;;;;;;7.37;2.60;;;8.30;99.90;;;;;;4174931;28;20029;-62
2022/05/24 02:53:10;;;;;;;5.57;2.90;;;8.40;99.90;;;;;;4174489;28;20551;-63
2022/05/24 02:55:12;;;;;;;9.37;3.50;;;8.40;99.90;;;;;;4175293;28;20033;-65
2022/05/24 02:57:14;;;;;;;8.57;3.77;;;8.60;99.90;;;;;;4174089;28;20029;-62
2022/05/24 02:59:15;;;;;;;11.83;4.67;;;8.80;99.90;;;;;;4175845;28;20428;-63
2022/05/24 03:01:23;;;;;;;7.83;3.97;;;8.90;99.90;;;;;;4174071;28;20087;-62
2022/05/24 03:03:24;;;;;;;7.67;3.17;;;9.10;99.90;;;;;;4175889;28;20063;-62
2022/05/24 03:05:27;;;;;;;5.97;3.00;;;9.50;99.90;;;;;;4174185;28;20063;-64
2022/05/24 03:09:49;;;;;;;24.15;11.75;;;9.90;99.90;;;;;;4174091;28;20029;-63
2022/05/24 03:14:15;;;;;;;8.00;4.40;;;10.30;99.90;;;;;;4173925;28;20087;-65
2022/05/24 03:16:16;;;;;;;5.53;2.47;;;10.60;99.90;;;;;;4190256;28;20036;-64
2022/05/24 03:18:19;;;;;;;6.27;2.63;;;10.80;99.90;;;;;;4190569;28;20078;-62
2022/05/24 03:20:21;;;;;;;8.00;2.80;;;11.00;99.90;;;;;;4191551;28;20036;-63
2022/05/24 03:22:22;;;;;;;7.00;2.47;;;11.20;99.90;;;;;;4189558;28;20513;-63
2022/05/24 03:24:23;;;;;;;8.23;3.00;;;11.40;99.90;;;;;;4191578;28;20078;-63
2022/05/24 03:26:24;;;;;;;12.50;2.70;;;11.80;99.90;;;;;;4190208;28;20504;-64
2022/05/24 03:28:26;;;;;;;7.87;2.63;;;12.20;99.90;;;;;;4180644;28;20090;-62
2022/05/24 03:30:28;;;;;;;5.27;3.20;;;12.40;99.90;;;;;;4174549;28;20110;-64
2022/05/24 03:32:29;;;;;;;7.43;2.53;;;12.40;99.90;;;;;;4173981;28;20126;-64
2022/05/24 03:34:30;;;;;;;6.17;2.37;;;12.30;99.90;;;;;;4175466;28;20053;-63
2022/05/24 03:36:31;;;;;;;6.53;2.53;;;12.40;99.90;;;;;;4173627;28;20033;-66
2022/05/24 03:38:32;;;;;;;12.67;4.90;;;12.10;99.90;;;;;;4174311;28;20051;-62
2022/05/24 03:40:34;;;;;;;10.10;5.27;;;11.80;99.90;;;;;;4173913;28;20427;-63
2022/05/24 03:42:36;;;;;;;12.97;5.47;;;11.60;99.90;;;;;;4174705;28;20033;-64
2022/05/24 03:44:37;;;;;;;16.43;5.70;;;11.40;99.90;;;;;;4183643;28;20114;-65
2022/05/24 03:46:39;;;;;;;16.63;7.40;;;11.50;99.90;;;;;;4180788;28;20599;-63
2022/05/24 03:48:40;;;;;;;17.33;7.67;;;11.60;99.90;;;;;;4173589;28;20075;-66
2022/05/24 03:50:41;;;;;;;21.77;8.13;;;11.70;99.90;;;;;;4174739;28;20029;-64
2022/05/24 03:52:42;;;;;;;22.83;10.00;;;11.90;99.90;;;;;;4177607;28;20848;-65
2022/05/24 03:54:44;;;;;;;17.07;8.80;;;12.10;99.90;;;;;;4190831;28;20488;-64
2022/05/24 03:59:05;;;;;;;27.03;11.97;;;12.70;99.90;;;;;;4190788;28;20063;-65
2022/05/24 04:01:06;;;;;;;28.93;11.30;;;12.70;99.90;;;;;;4189255;28;20105;-64
2022/05/24 04:03:08;;;;;;;21.23;9.90;;;12.70;99.90;;;;;;4190559;28;20074;-67
2022/05/24 04:05:10;;;;;;;28.07;11.43;;;12.70;99.90;;;;;;4189709;28;20036;-64
2022/05/24 04:07:11;;;;;;;26.80;9.50;;;12.60;99.90;;;;;;4189677;28;20101;-62
2022/05/24 04:09:12;;;;;;;16.80;8.60;;;12.40;99.90;;;;;;4190004;28;20575;-62
2022/05/24 04:11:14;;;;;;;14.53;6.80;;;12.20;99.90;;;;;;4189326;28;20102;-67
2022/05/24 04:13:15;;;;;;;15.40;5.00;;;12.20;99.90;;;;;;4189722;28;20056;-64
2022/05/24 04:15:16;;;;;;;17.47;6.63;;;12.20;99.90;;;;;;4184951;28;20451;-64
2022/05/24 04:17:17;;;;;;;12.20;5.90;;;12.10;99.90;;;;;;4173677;28;20033;-62
2022/05/24 04:19:19;;;;;;;13.87;5.80;;;12.10;99.90;;;;;;4172619;28;20056;-66
2022/05/24 04:21:20;;;;;;;9.73;5.43;;;12.10;99.90;;;;;;4176136;28;20049;-64
2022/05/24 04:23:21;;;;;;;13.07;5.27;;;12.30;99.90;;;;;;4188731;28;20034;-64
2022/05/24 04:25:25;;;;;;;12.07;6.43;;;12.50;99.90;;;;;;4189158;28;20088;-64
2022/05/24 04:27:26;;;;;;;13.77;5.83;;;12.90;99.90;;;;;;4188838;28;20540;-63
2022/05/24 04:29:27;;;;;;;11.70;6.27;;;13.00;99.90;;;;;;4189784;28;20028;-64
2022/05/24 04:31:28;;;;;;;34.50;11.53;;;13.10;99.90;;;;;;4188584;28;20122;-64
2022/05/24 04:33:29;;;;;;;19.43;7.83;;;13.20;99.90;;;;;;4189650;28;20020;-64
2022/05/24 04:35:30;;;;;;;21.93;8.70;;;13.20;99.90;;;;;;4181099;28;20980;-65
2022/05/24 04:37:31;;;;;;;20.20;8.27;;;13.20;99.90;;;;;;4180660;28;20094;-62
2022/05/24 04:39:33;;;;;;;25.37;9.83;;;13.20;99.90;;;;;;4177494;28;20118;-64
2022/05/24 04:43:53;;;;;;;24.38;11.30;;;13.00;99.90;;;;;;4172376;28;20087;-66
2022/05/24 04:45:56;;;;;;;21.90;10.53;;;13.10;99.90;;;;;;4172218;28;20059;-64
2022/05/24 04:47:57;;;;;;;24.10;10.60;;;13.20;99.90;;;;;;4173114;28;20037;-63
2022/05/24 04:50:03;;;;;;;25.57;11.17;;;13.20;99.90;;;;;;4171755;28;20037;-65
2022/05/24 04:52:09;;;;;;;21.20;11.40;;;13.10;99.90;;;;;;4156982;28;20091;-64
2022/05/24 04:54:11;;;;;;;28.73;10.33;;;13.20;99.90;;;;;;4154389;28;20060;-64
2022/05/24 04:56:12;;;;;;;20.17;9.47;;;13.20;99.90;;;;;;4172468;28;20090;-64
2022/05/24 04:58:13;;;;;;;18.90;10.47;;;13.40;99.90;;;;;;4171609;28;20464;-62
2022/05/24 05:00:15;;;;;;;20.00;10.17;;;13.60;99.90;;;;;;4172590;28;20388;-64
2022/05/24 05:02:21;;;;;;;16.50;9.83;;;13.70;99.90;;;;;;4171176;28;20473;-62
2022/05/24 05:04:24;;;;;;;16.33;9.20;;;13.90;99.90;;;;;;4171623;28;20067;-62
2022/05/24 05:06:25;;;;;;;14.33;8.70;;;14.00;99.90;;;;;;4184743;28;20082;-62
2022/05/24 05:08:26;;;;;;;22.30;8.20;;;13.90;99.90;;;;;;4188013;28;20044;-64
2022/05/24 05:10:28;;;;;;;11.80;7.27;;;13.80;99.90;;;;;;4175158;28;20484;-63
2022/05/24 05:12:29;;;;;;;23.13;8.80;;;13.50;99.90;;;;;;4171244;28;20067;-64
2022/05/24 05:14:31;;;;;;;26.47;9.50;;;13.40;99.90;;;;;;4170469;28;20467;-63
2022/05/24 05:16:32;;;;;;;29.90;9.57;;;13.20;99.90;;;;;;4172236;28;20063;-65
2022/05/24 05:18:33;;;;;;;26.20;9.63;;;13.10;99.90;;;;;;4170385;28;20037;-65
2022/05/24 05:20:39;;;;;;;29.20;10.97;;;13.10;99.90;;;;;;4171847;28;20572;-64
2022/05/24 05:22:40;;;;;;;27.00;9.97;;;12.90;99.90;;;;;;4170779;28;20037;-63
2022/05/24 05:24:42;;;;;;;27.20;9.07;;;12.70;99.90;;;;;;4171562;28;20079;-64
2022/05/24 05:26:43;;;;;;;31.53;8.77;;;12.50;99.90;;;;;;4170879;28;20484;-65
2022/05/24 05:28:44;;;;;;;27.77;9.23;;;12.40;99.90;;;;;;4171134;28;20139;-64
2022/05/24 05:33:06;;;;;;;40.90;11.65;;;12.30;99.90;;;;;;4171764;28;21034;-64
2022/05/24 05:35:08;;;;;;;29.63;9.03;;;12.30;99.90;;;;;;4172753;28;20117;-64
2022/05/24 05:37:09;;;;;;;35.40;9.87;;;12.60;99.90;;;;;;4171691;28;20037;-64
2022/05/24 05:39:10;;;;;;;23.53;9.07;;;13.00;99.90;;;;;;4172916;28;20397;-64
2022/05/24 05:41:13;;;;;;;22.83;6.73;;;13.40;99.90;;;;;;4171207;28;20044;-63
2022/05/24 05:43:14;;;;;;;17.90;6.77;;;13.80;99.90;;;;;;4172680;28;20033;-64
2022/05/24 05:45:15;;;;;;;14.30;5.00;;;13.80;99.90;;;;;;4172099;28;20327;-65
2022/05/24 05:47:17;;;;;;;13.30;5.27;;;13.80;99.90;;;;;;4172544;28;20366;-67
2022/05/24 05:49:18;;;;;;;14.80;6.00;;;13.70;99.90;;;;;;4171670;28;20079;-64
2022/05/24 05:51:20;;;;;;;17.10;4.97;;;13.60;99.90;;;;;;4172252;28;20033;-65
2022/05/24 05:53:22;;;;;;;13.50;5.13;;;13.80;99.90;;;;;;4171616;28;20379;-63
2022/05/24 05:55:25;;;;;;;16.10;5.77;;;13.90;99.90;;;;;;4170030;28;20053;-66
2022/05/24 05:57:26;;;;;;;9.53;4.57;;;14.10;99.90;;;;;;4172111;28;20568;-63
2022/05/24 05:59:27;;;;;;;16.70;4.87;;;14.20;99.90;;;;;;4171383;28;20424;-63
2022/05/24 06:01:30;;;;;;;14.37;4.60;;;14.30;99.90;;;;;;4171972;28;20456;-64
2022/05/24 06:03:31;;;;;;;11.33;6.97;;;14.50;99.80;;;;;;4170710;28;20037;-63
2022/05/24 06:05:32;;;;;;;16.87;5.10;;;14.60;99.70;;;;;;4172249;28;20025;-63
2022/05/24 06:07:34;;;;;;;15.90;5.47;;;14.70;99.70;;;;;;4171199;28;20029;-63
2022/05/24 06:09:35;;;;;;;15.50;4.73;;;14.80;99.60;;;;;;4172416;28;20098;-63
2022/05/24 06:11:36;;;;;;;7.30;3.00;;;15.10;99.50;;;;;;4171677;28;20041;-64
2022/05/24 06:13:37;;;;;;;6.70;3.30;;;15.10;98.70;;;;;;4172233;28;20107;-63
2022/05/24 06:15:38;;;;;;;7.87;3.00;;;15.10;98.80;;;;;;4174743;28;20056;-63
2022/05/24 06:17:48;;;;;;;8.00;3.00;;;14.90;98.80;;;;;;4175070;28;20041;-64
2022/05/24 06:19:49;;;;;;;6.23;3.53;;;14.90;99.10;;;;;;4174990;28;20432;-65
2022/05/24 06:21:50;;;;;;;7.83;3.00;;;14.90;99.70;;;;;;4175319;28;20083;-63
2022/05/24 06:23:51;;;;;;;4.03;2.90;;;15.10;99.40;;;;;;4175261;28;20029;-64
2022/05/24 06:25:52;;;;;;;8.50;2.93;;;15.10;99.40;;;;;;4174573;28;20071;-65
2022/05/24 06:27:55;;;;;;;6.77;2.73;;;15.00;99.50;;;;;;4174864;28;20099;-63
2022/05/24 06:29:56;;;;;;;11.47;2.57;;;14.90;99.60;;;;;;4174733;28;20033;-63
2022/05/24 06:31:57;;;;;;;4.03;2.40;;;14.80;99.70;;;;;;4175335;28;20041;-63
2022/05/24 06:33:58;;;;;;;5.20;3.13;;;14.60;99.90;;;;;;4175022;28;20037;-66
2022/05/24 06:35:59;;;;;;;5.93;2.83;;;14.60;99.90;;;;;;4175126;28;20057;-63
2022/05/24 06:38:01;;;;;;;7.83;2.60;;;14.70;99.90;;;;;;4173574;28;20037;-65
2022/05/24 06:40:02;;;;;;;5.20;3.00;;;14.70;99.90;;;;;;4174415;28;20025;-66
2022/05/24 06:42:04;;;;;;;5.87;2.80;;;14.70;99.90;;;;;;4173434;28;20041;-63
2022/05/24 06:44:05;;;;;;;8.30;2.77;;;14.90;99.90;;;;;;4174844;28;20029;-64
2022/05/24 06:46:09;;;;;;;3.80;3.10;;;14.80;99.90;;;;;;4174161;28;20045;-63
2022/05/24 06:48:11;;;;;;;7.13;3.77;;;15.10;99.90;;;;;;4175085;28;20055;-63
2022/05/24 06:50:13;;;;;;;5.23;3.27;;;15.20;99.90;;;;;;4173862;28;20025;-64
2022/05/24 06:52:15;;;;;;;8.00;3.80;;;15.40;99.90;;;;;;4174989;28;20041;-63
2022/05/24 06:54:16;;;;;;;5.77;3.80;;;15.50;99.90;;;;;;4174368;28;20465;-65
2022/05/24 06:56:18;;;;;;;4.57;3.50;;;15.60;99.90;;;;;;4173263;28;20045;-64
2022/05/24 06:58:19;;;;;;;8.83;3.60;;;15.90;99.70;;;;;;4174006;28;20029;-64
2022/05/24 07:02:40;;;;;;;5.47;3.65;;;16.60;98.80;;;;;;4173973;28;20052;-65
2022/05/24 07:04:41;;;;;;;10.95;3.28;;;16.80;98.50;;;;;;4174638;28;20033;-65
2022/05/24 07:06:42;;;;;;;5.50;3.17;;;17.00;98.30;;;;;;4174101;28;20033;-64
2022/05/24 07:08:48;;;;;;;5.45;3.50;;;17.10;98.10;;;;;;4174120;28;20425;-64
2022/05/24 07:10:49;;;;;;;6.03;2.80;;;17.10;98.00;;;;;;4174392;28;20037;-62
2022/05/24 07:13:02;;;;;;;6.25;3.05;;;17.30;97.80;;;;;;4173154;28;20106;-63
2022/05/24 07:15:04;;;;;;;3.95;2.65;;;17.10;97.90;;;;;;4174499;28;20044;-62
2022/05/24 07:17:05;;;;;;;7.10;2.55;;;17.10;98.00;;;;;;4173640;28;20079;-63
2022/05/24 07:19:06;;;;;;;8.60;3.42;;;17.30;97.60;;;;;;4174591;28;20129;-63
2022/05/24 07:21:07;;;;;;;5.45;2.95;;;17.30;97.70;;;;;;4173401;28;20033;-64
2022/05/24 07:23:14;;;;;;;7.72;2.80;;;17.30;97.80;;;;;;4174917;28;20033;-64
2022/05/24 07:25:16;;;;;;;5.75;2.63;;;17.20;97.60;;;;;;4172361;28;20480;-64
2022/05/24 07:27:21;;;;;;;5.03;2.63;;;17.20;97.70;;;;;;4174875;28;20443;-65
2022/05/24 07:29:23;;;;;;;5.20;2.97;;;17.40;97.60;;;;;;4172842;28;20036;-64
2022/05/24 07:31:24;;;;;;;4.93;2.53;;;17.50;97.40;;;;;;4174204;28;20040;-65
2022/05/24 07:33:25;;;;;;;7.68;3.47;;;17.40;97.50;;;;;;4173404;28;20036;-64
2022/05/24 07:35:26;;;;;;;8.98;2.95;;;17.40;97.50;;;;;;4174362;28;20813;-63
2022/05/24 07:37:27;;;;;;;7.60;2.78;;;17.50;97.30;;;;;;4173355;28;20559;-64
2022/05/24 07:39:29;;;;;;;5.15;2.20;;;17.50;97.10;;;;;;4173460;28;20025;-63
2022/05/24 07:46:17;;;;;;;7.00;2.13;;;17.80;96.90;;;;;;4173984;28;20559;-65
2022/05/24 07:48:19;;;;;;;5.32;1.70;;;17.80;96.80;;;;;;4174115;28;20037;-64
2022/05/24 07:50:21;;;;;;;4.50;2.05;;;18.00;96.60;;;;;;4173833;28;20381;-63
2022/05/24 07:52:22;;;;;;;8.77;2.13;;;18.10;96.50;;;;;;4173497;28;20033;-64
2022/05/24 07:54:24;;;;;;;3.88;1.88;;;18.20;96.50;;;;;;4173453;28;20102;-65
2022/05/24 07:56:25;;;;;;;3.25;1.60;;;18.30;95.90;;;;;;4173016;28;20445;-63
2022/05/24 07:58:27;;;;;;;2.08;1.58;;;18.30;95.70;;;;;;4173988;28;20029;-63
2022/05/24 08:00:29;;;;;;;4.88;1.80;;;18.40;95.50;;;;;;4172708;28;20078;-64
2022/05/24 08:02:30;;;;;;;3.35;1.90;;;18.60;95.40;;;;;;4173941;28;20029;-63
2022/05/24 08:04:31;;;;;;;3.03;1.42;;;18.60;95.00;;;;;;4173173;28;20083;-64
2022/05/24 08:06:32;;;;;;;13.10;1.52;;;18.80;94.90;;;;;;4173668;28;20082;-63
2022/05/24 08:08:34;;;;;;;5.10;2.35;;;19.00;95.20;;;;;;4173044;28;20475;-64
2022/05/24 08:10:36;;;;;;;3.83;1.90;;;19.10;94.90;;;;;;4173644;28;20091;-65
2022/05/24 08:12:38;;;;;;;2.50;1.80;;;19.10;94.70;;;;;;4172759;28;20076;-63
2022/05/24 08:14:39;;;;;;;2.85;1.52;;;19.00;94.40;;;;;;4173598;28;20095;-63
2022/05/24 08:16:40;;;;;;;6.07;1.85;;;18.90;94.20;;;;;;4172824;28;20052;-64
2022/05/24 08:18:43;;;;;;;4.80;2.05;;;19.00;94.00;;;;;;4173763;28;20427;-64
2022/05/24 08:20:45;;;;;;;3.70;1.60;;;19.20;93.80;;;;;;4172513;28;20067;-64
2022/05/24 08:22:46;;;;;;;5.65;2.08;;;19.40;93.50;;;;;;4173011;28;20041;-65
2022/05/24 08:24:48;;;;;;;4.05;1.42;;;19.70;93.30;;;;;;4172926;28;20037;-64
2022/05/24 08:26:49;;;;;;;5.25;1.20;;;19.90;92.90;;;;;;4172853;28;20107;-64
2022/05/24 08:28:51;;;;;;;2.38;1.10;;;20.10;92.30;;;;;;4171383;28;20049;-64
2022/05/24 08:30:53;;;;;;;10.13;1.63;;;20.10;91.80;;;;;;4172551;28;20098;-64
2022/05/24 08:32:56;;;;;;;4.40;1.95;;;20.20;91.60;;;;;;4173214;28;20033;-65
2022/05/24 08:34:57;;;;;;;4.38;1.38;;;20.20;91.40;;;;;;4172326;28;20421;-65
2022/05/24 08:36:59;;;;;;;3.13;1.00;;;20.10;90.90;;;;;;4172356;28;20037;-64
2022/05/24 08:39:00;;;;;;;1.67;1.15;;;20.20;90.80;;;;;;4171830;28;20431;-64
2022/05/24 08:41:04;;;;;;;3.28;1.15;;;20.40;90.60;;;;;;4173266;28;20083;-64
2022/05/24 08:43:27;;;;;;;3.25;1.00;;;20.30;90.20;;;;;;4172392;28;20083;-65
2022/05/24 08:50:17;;;;;;;2.20;1.23;;;20.30;90.00;;;;;;4173429;28;20889;-64
2022/05/24 08:52:19;;;;;;;2.13;1.30;;;20.40;89.70;;;;;;4172235;28;20828;-64
2022/05/24 08:54:26;;;;;;;3.15;1.15;;;20.40;89.30;;;;;;4172814;28;20481;-65
2022/05/24 08:57:02;;;;;;;1.85;1.08;;;20.40;89.00;;;;;;4169901;28;20056;-64
2022/05/24 08:59:18;;;;;;;2.25;1.17;;;20.40;88.00;;;;;;4172980;28;20068;-67
2022/05/24 09:01:23;;;;;;;3.28;1.17;;;20.10;88.40;;;;;;4172268;28;20040;-64
2022/05/24 09:03:26;;;;;;;1.60;1.50;;;20.10;89.60;;;;;;4172780;28;20025;-63
2022/05/24 09:05:27;;;;;;;1.25;1.10;;;20.00;89.50;;;;;;4172764;28;20422;-65
2022/05/24 09:07:38;;;;;;;3.80;2.72;;;20.00;89.50;;;;;;4173122;28;20654;-63
2022/05/24 09:09:50;;;;;;;3.17;1.10;;;20.20;89.00;;;;;;4171936;28;20024;-65
2022/05/24 09:12:25;;;;;;;5.57;1.70;;;20.20;88.80;;;;;;4172432;28;20078;-64
2022/05/24 09:15:03;;;;;;;2.45;1.83;;;20.10;88.10;;;;;;4172188;28;20045;-64
2022/05/24 09:17:14;;;;;;;5.90;1.50;;;20.20;88.10;;;;;;4171606;28;20166;-64
2022/05/24 09:19:24;;;;;;;5.65;1.45;;;20.30;87.20;;;;;;4172400;28;20041;-63
2022/05/24 09:21:29;;;;;;;2.75;1.23;;;20.40;87.50;;;;;;4172375;28;20106;-64
2022/05/24 09:23:46;;;;;;;3.90;1.75;;;20.50;87.10;;;;;;4172556;28;20037;-66
2022/05/24 09:25:56;;;;;;;2.33;1.35;;;20.50;86.80;;;;;;4171736;28;20366;-64
2022/05/24 09:27:58;;;;;;;2.45;1.45;;;20.70;85.00;;;;;;4172527;28;20028;-64
2022/05/24 09:30:20;;;;;;;1.50;1.08;;;20.70;85.50;;;;;;4171986;28;20024;-62
2022/05/24 09:32:27;;;;;;;3.13;1.45;;;20.70;84.90;;;;;;4172382;28;20055;-63
2022/05/24 09:34:31;;;;;;;3.13;1.23;;;20.70;85.10;;;;;;4171840;28;20025;-64
2022/05/24 09:36:33;;;;;;;2.15;1.00;;;20.90;85.40;;;;;;4172086;28;20777;-65
2022/05/24 09:38:39;;;;;;;1.60;1.25;;;21.00;84.60;;;;;;4171886;28;20480;-64
2022/05/24 09:40:57;;;;;;;1.83;1.50;;;21.10;84.00;;;;;;4172226;28;20083;-64
2022/05/24 09:43:17;;;;;;;2.45;1.48;;;21.30;83.90;;;;;;4171884;28;20045;-63
2022/05/24 09:45:27;;;;;;;4.88;1.88;;;21.40;82.10;;;;;;4172677;28;20037;-63
2022/05/24 09:47:33;;;;;;;2.05;1.42;;;21.20;82.50;;;;;;4171471;28;20417;-64
2022/05/24 09:49:35;;;;;;;5.45;1.48;;;21.00;82.50;;;;;;4172329;28;20530;-64
2022/05/24 09:51:41;;;;;;;2.65;1.60;;;21.00;83.30;;;;;;4171567;28;20547;-64
2022/05/24 09:53:52;;;;;;;4.40;1.70;;;21.10;82.80;;;;;;4172215;28;20099;-64
2022/05/24 09:56:17;;;;;;;3.63;1.80;;;21.20;81.10;;;;;;4171529;28;20075;-64
2022/05/24 09:58:21;;;;;;;2.63;1.45;;;21.30;81.70;;;;;;4172372;28;20048;-65
2022/05/24 10:00:23;;;;;;;2.97;1.42;;;21.70;81.60;;;;;;4171620;28;20548;-64
2022/05/24 10:02:28;;;;;;;5.47;1.85;;;21.90;81.00;;;;;;4171959;28;20123;-64
2022/05/24 10:04:39;;;;;;;1.88;1.75;;;22.20;79.60;;;;;;4171653;28;20568;-64
2022/05/24 10:06:49;;;;;;;1.80;1.30;;;22.20;78.60;;;;;;4172075;28;20067;-64
2022/05/24 10:09:17;;;;;;;4.88;1.30;;;21.90;78.30;;;;;;4171256;28;20045;-64
2022/05/24 10:11:39;;;;;;;1.52;1.20;;;21.70;77.90;;;;;;4171431;28;20392;-64
2022/05/24 10:13:56;;;;;;;4.55;1.10;;;21.50;77.60;;;;;;4171133;28;20570;-64
2022/05/24 10:16:11;;;;;;;2.92;1.27;;;21.40;79.20;;;;;;4172078;28;20037;-64
2022/05/24 10:18:18;;;;;;;1.73;1.40;;;21.50;78.90;;;;;;4171269;28;20485;-64
2022/05/24 10:20:49;;;;;;;4.38;1.60;;;21.60;79.30;;;;;;4172135;28;20489;-65
2022/05/24 10:23:12;;;;;;;2.45;1.30;;;21.70;78.40;;;;;;4166743;28;20113;-65
2022/05/24 10:25:25;;;;;;;2.53;1.20;;;21.70;77.80;;;;;;4170944;28;20036;-65
2022/05/24 10:27:54;;;;;;;6.07;1.90;;;21.40;77.80;;;;;;4170709;28;20074;-64
2022/05/24 10:30:03;;;;;;;6.28;1.52;;;21.50;78.40;;;;;;4171580;28;20083;-65
2022/05/24 10:38:19;;;;;;;2.63;1.75;;;21.80;78.40;;;;;;4172394;28;20174;-64
2022/05/24 10:40:43;;;;;;;2.03;1.30;;;22.00;77.80;;;;;;4171058;28;20021;-64
2022/05/24 10:43:10;;;;;;;1.70;1.10;;;22.10;77.00;;;;;;4171527;28;20366;-64
2022/05/24 10:45:17;;;;;;;3.28;1.23;;;22.10;75.90;;;;;;4171357;28;20044;-64
2022/05/24 10:47:42;;;;;;;2.88;1.48;;;21.90;76.90;;;;;;4171722;28;20554;-64
2022/05/24 10:49:51;;;;;;;3.95;1.60;;;21.70;76.10;;;;;;4170905;28;20021;-64
2022/05/24 10:51:57;;;;;;;2.60;1.38;;;21.60;77.20;;;;;;4171798;28;20071;-63
2022/05/24 10:54:09;;;;;;;9.00;1.35;;;21.70;77.50;;;;;;4171155;28;20374;-64
2022/05/24 10:56:35;;;;;;;1.30;1.20;;;21.80;77.40;;;;;;4170812;28;20064;-64
2022/05/24 10:58:41;;;;;;;1.83;1.38;;;21.90;77.10;;;;;;4171524;28;20041;-63
2022/05/24 11:01:13;;;;;;;1.65;1.38;;;22.00;77.70;;;;;;4172738;28;20535;-64
2022/05/24 11:03:30;;;;;;;4.88;0.70;;;22.20;76.40;;;;;;4174634;28;20078;-64
2022/05/24 11:05:36;;;;;;;1.30;1.10;;;22.20;75.20;;;;;;4172324;28;20049;-63
2022/05/24 11:07:37;;;;;;;2.55;0.70;;;22.10;74.80;;;;;;4174401;28;20724;-63
2022/05/24 11:10:06;;;;;;;4.80;0.80;;;21.90;74.70;;;;;;4174057;28;20094;-64
2022/05/24 11:12:15;;;;;;;3.40;1.05;;;22.00;74.50;;;;;;4166964;28;20056;-63
2022/05/24 11:14:31;;;;;;;5.70;2.53;;;22.10;74.50;;;;;;4172898;28;20044;-65
2022/05/24 11:16:47;;;;;;;1.73;1.25;;;22.40;74.40;;;;;;4174354;28;20091;-64
2022/05/24 11:18:48;;;;;;;2.45;0.88;;;22.60;74.20;;;;;;4173477;28;20029;-65
2022/05/24 11:21:06;;;;;;;2.67;1.10;;;22.60;74.60;;;;;;4175075;28;20143;-64
2022/05/24 11:23:14;;;;;;;4.78;1.10;;;22.50;74.20;;;;;;4173308;28;20033;-65
2022/05/24 11:25:25;;;;;;;1.30;1.10;;;22.30;74.90;;;;;;4174346;28;20053;-63
2022/05/24 11:27:50;;;;;;;8.02;1.08;;;22.30;75.40;;;;;;4173039;28;20045;-66
2022/05/24 11:30:31;;;;;;;3.70;1.10;;;22.30;74.90;;;;;;4174423;28;20416;-63